Historyczne dane pomiarowe

Dodano dane terminowe – wersja testowa.

Dane z okresu 1951-2019

Wersja bazy: 1.34 [2019-03-16, lista zmian], aktualizacja planowana na 2019-04-15

Dane meteo z obszaru Polski uzyskane na podstawie danych udostępnionych przez Instytut Meteorologii i Gospodarki Wodnej – Państwowy Instytut Badawczy.

 

Wybierz Datę:    

       

TemperaturaWilgotnośćZachmurzenieWiatrCiśnienieWidzialnośćZjawiska
 Data    tng td wb rh cc ccl cl cm ch dir g1 g2 mslp ppp      
1994-07-14 00:00:00 13.2--- 11.4 12.289wxwx0wx--1022.4 981.4 0.0---wx
1994-07-14 01:00:00 13.4--- 11.7 12.489wxwx0wx--1022.3 981.3----wx
1994-07-14 02:00:00 11.8--- 10.7 11.293wxwxwx0wx--1022.6 981.4----wx
1994-07-14 03:00:00 11.8--- 10.7 11.293wxwxwx0wx--1022.7 981.5----wx
1994-07-14 04:00:00 11.6--- 10.5 11.093wxwxwx0wx--1022.9 981.7----wx
1994-07-14 05:00:00 13.8--- 12.4 13.091wxwxwx0wx--1022.6 981.7----wx
1994-07-14 06:00:00 17.5--- 13.7 15.278wxwxwx0wx--1022.1 981.7 0.0---wx
1994-07-14 07:00:00 21.5--- 14.6 17.265wxwxwxwx0wx--1021.6 981.8----wx
1994-07-14 08:00:00 25.4--- 16.0 19.356wxwxwxwx0wx--1020.9 981.6----wx
1994-07-14 09:00:00 26.9--- 14.5 19.047wxwxwxwx3wx--1020.7 981.6----wx
1994-07-14 10:00:00 27.5--- 13.5 18.742wxwxwxwx3wx--1020.3 981.3----wx
1994-07-14 11:00:00 28.1--- 11.6 18.036wxwxwxwx3wx--1019.7 980.8----wx
1994-07-14 12:00:00 29.4--- 11.7 18.534wxwxwxwx3wx--1019.2 980.5 0.0---wx
1994-07-14 13:00:00 29.4--- 10.3 17.931wxwxwxwx3wx--1018.8 980.1----wx
1994-07-14 14:00:00 29.2--- 10.2 17.831wxwxwxwx1wx--1018.5 979.8----wx
1994-07-14 15:00:00 29.7--- 11.5 18.532wxwxwxwx2wx--1018.0 979.4----wx
1994-07-14 16:00:00 27.3--- 15.7 19.849wxwxwxwx1wx--1018.2 979.2----wx
1994-07-14 17:00:00 27.7--- 14.9 19.546wxwxwxwx0wx--1018.0 979.1----wx
1994-07-14 18:00:00 25.0--- 17.3 19.962wxwxwxwx0wx--1018.6 979.3 0.0---wx
1994-07-14 19:00:00 22.7--- 17.9 19.574wxwxwxwx0wx--1018.9 979.3----wx
1994-07-14 20:00:00 20.5--- 16.4 17.978wxwxwxwx0wx--1019.7 979.8----wx
1994-07-14 21:00:00 19.5--- 15.9 17.280wxwx0wx--1019.7 979.7----wx
1994-07-14 22:00:00 17.5--- 15.6 16.389wxwx0wx--1019.9 979.6----wx
1994-07-14 23:00:00 17.0--- 15.4 16.090wxwx0wx--1019.9 979.5----wx

 

Źródłem pochodzenia danych jest Instytut Meteorologii i Gospodarki Wodnej – Państwowy Instytut Badawczy. Dane Instytutu Meteorologii i Gospodarki Wodnej – Państwowego Instytutu Badawczego zostały przetworzone.

Dane źródłowe można odnaleźć na stronie https://dane.imgw.pl